createdAt,value
2023-03-29T00:00:15.074Z,100.00
2023-03-29T00:02:49.119Z,100.00
2023-03-29T00:05:19.498Z,100.00
2023-03-29T00:07:47.656Z,100.00
2023-03-29T00:10:16.075Z,100.00
2023-03-29T00:12:44.218Z,100.00
2023-03-29T00:15:12.694Z,100.00
2023-03-29T00:17:42.177Z,100.00
2023-03-29T00:20:10.923Z,100.00
2023-03-29T00:22:44.143Z,100.00
2023-03-29T00:25:12.692Z,100.00
2023-03-29T00:27:41.007Z,100.00
2023-03-29T00:30:10.680Z,100.00
2023-03-29T00:32:39.291Z,100.00
2023-03-29T00:35:07.852Z,100.00
2023-03-29T00:37:38.376Z,100.00
2023-03-29T00:40:09.670Z,100.00
2023-03-29T00:42:38.124Z,100.00
2023-03-29T00:45:12.461Z,100.00
2023-03-29T00:47:47.540Z,100.00
2023-03-29T00:50:22.606Z,100.00
2023-03-29T00:53:01.016Z,100.00
2023-03-29T00:55:43.021Z,100.00
2023-03-29T00:58:13.218Z,100.00
2023-03-29T01:00:47.474Z,100.00
2023-03-29T01:03:24.748Z,100.00
2023-03-29T01:06:02.635Z,100.00
2023-03-29T01:08:36.272Z,100.00
2023-03-29T01:11:25.107Z,100.00
2023-03-29T01:14:03.756Z,100.00
2023-03-29T01:16:33.679Z,100.00
2023-03-29T01:19:02.558Z,100.00
2023-03-29T01:21:33.450Z,100.00
2023-03-29T01:24:42.249Z,100.00
2023-03-29T01:27:33.199Z,100.00
2023-03-29T01:30:12.289Z,100.00
2023-03-29T01:32:45.460Z,100.00
2023-03-29T01:35:16.417Z,100.00
2023-03-29T01:37:51.578Z,100.00
2023-03-29T01:40:19.973Z,100.00
2023-03-29T01:42:51.530Z,100.00
2023-03-29T01:45:28.511Z,100.00
2023-03-29T01:48:38.278Z,100.00
2023-03-29T01:51:14.590Z,100.00
2023-03-29T01:54:04.933Z,100.00
2023-03-29T01:56:38.742Z,100.00
2023-03-29T01:59:28.444Z,100.00
2023-03-29T02:02:00.258Z,100.00
2023-03-29T02:04:34.747Z,100.00
2023-03-29T02:07:04.656Z,100.00
2023-03-29T02:09:32.874Z,100.00
2023-03-29T02:12:05.961Z,100.00
2023-03-29T02:14:33.949Z,100.00
2023-03-29T02:17:19.679Z,100.00
2023-03-29T02:19:51.696Z,100.00
2023-03-29T02:22:24.059Z,100.00
2023-03-29T02:24:53.043Z,100.00
2023-03-29T02:27:21.894Z,100.00
2023-03-29T02:29:51.198Z,100.00
2023-03-29T02:32:30.418Z,100.00
2023-03-29T02:35:01.701Z,100.00
2023-03-29T02:37:30.466Z,100.00
2023-03-29T02:39:58.984Z,100.00
2023-03-29T02:42:26.951Z,100.00
2023-03-29T02:45:02.300Z,100.00
2023-03-29T02:47:33.594Z,100.00
2023-03-29T02:50:01.601Z,100.00
2023-03-29T02:52:34.298Z,100.00
2023-03-29T02:55:03.513Z,100.00
2023-03-29T02:57:35.764Z,100.00
2023-03-29T03:00:05.420Z,100.00
2023-03-29T03:02:35.634Z,100.00
2023-03-29T03:05:08.333Z,100.00
2023-03-29T03:07:37.424Z,100.00
2023-03-29T03:10:07.914Z,100.00
2023-03-29T03:12:39.255Z,100.00
2023-03-29T03:15:08.356Z,100.00
2023-03-29T03:17:40.240Z,100.00
2023-03-29T03:20:13.123Z,100.00
2023-03-29T03:22:48.967Z,100.00
2023-03-29T03:25:21.340Z,100.00
2023-03-29T03:27:50.438Z,100.00
2023-03-29T03:30:21.068Z,100.00
2023-03-29T03:32:58.276Z,100.00
2023-03-29T03:35:46.488Z,100.00
2023-03-29T03:38:20.222Z,100.00
2023-03-29T03:40:56.282Z,100.00
2023-03-29T03:43:25.189Z,100.00
2023-03-29T03:45:53.942Z,100.00
2023-03-29T03:48:24.684Z,100.00
2023-03-29T03:51:13.299Z,100.00
2023-03-29T03:53:41.695Z,100.00
2023-03-29T03:56:16.433Z,100.00
2023-03-29T03:59:05.349Z,100.00
2023-03-29T04:01:43.937Z,100.00
2023-03-29T04:04:19.790Z,100.00
2023-03-29T04:07:13.261Z,100.00
2023-03-29T04:09:56.704Z,100.00
2023-03-29T04:12:45.067Z,100.00
2023-03-29T04:15:17.981Z,100.00
2023-03-29T04:17:56.798Z,100.00
2023-03-29T04:20:28.447Z,100.00
2023-03-29T04:22:56.917Z,100.00
2023-03-29T04:25:26.273Z,100.00
2023-03-29T04:28:14.320Z,100.00
2023-03-29T04:31:05.463Z,100.00
2023-03-29T04:33:41.043Z,100.00
2023-03-29T04:36:10.653Z,100.00
2023-03-29T04:38:43.359Z,100.00
2023-03-29T04:41:15.363Z,100.00
2023-03-29T04:43:56.249Z,100.00
2023-03-29T04:46:26.886Z,100.00
2023-03-29T04:49:03.727Z,100.00
2023-03-29T04:51:37.220Z,100.00
2023-03-29T04:54:07.673Z,100.00
2023-03-29T04:56:54.751Z,100.00
2023-03-29T04:59:37.015Z,100.00
2023-03-29T05:02:12.435Z,100.00
2023-03-29T05:04:42.835Z,100.00
2023-03-29T05:07:19.533Z,100.00
2023-03-29T05:09:49.488Z,100.00
2023-03-29T05:12:17.864Z,100.00
2023-03-29T05:14:57.660Z,100.00
2023-03-29T05:17:27.494Z,100.00
2023-03-29T05:19:58.128Z,100.00
2023-03-29T05:22:26.478Z,100.00
2023-03-29T05:24:54.743Z,100.00
2023-03-29T05:27:24.114Z,100.00
2023-03-29T05:30:02.744Z,100.00
2023-03-29T05:32:54.700Z,100.00
2023-03-29T05:35:29.362Z,100.00
2023-03-29T05:37:58.453Z,100.00
2023-03-29T05:40:27.106Z,100.00
2023-03-29T05:43:27.719Z,100.00
2023-03-29T05:45:56.463Z,100.00
2023-03-29T05:48:25.894Z,100.00
2023-03-29T05:50:55.064Z,100.00
2023-03-29T05:53:24.496Z,100.00
2023-03-29T05:55:52.764Z,99.67
2023-03-29T05:58:21.929Z,99.08
2023-03-29T06:00:50.291Z,97.93
2023-03-29T06:03:38.659Z,96.18
2023-03-29T06:06:07.292Z,95.87
2023-03-29T06:08:36.185Z,95.84
2023-03-29T06:11:10.962Z,96.14
2023-03-29T06:14:04.814Z,97.04
2023-03-29T06:16:34.025Z,96.73
2023-03-29T06:19:02.558Z,96.82
2023-03-29T06:21:32.030Z,96.25
2023-03-29T06:24:01.564Z,96.05
2023-03-29T06:26:35.607Z,94.94
2023-03-29T06:29:04.362Z,94.50
2023-03-29T06:31:32.501Z,94.02
2023-03-29T06:34:01.603Z,92.38
2023-03-29T06:36:51.161Z,90.17
2023-03-29T06:39:21.373Z,88.65
2023-03-29T06:42:12.954Z,88.05
2023-03-29T06:45:13.476Z,87.59
2023-03-29T06:47:42.125Z,86.75
2023-03-29T06:50:11.878Z,85.62
2023-03-29T06:53:00.498Z,85.31
2023-03-29T06:55:28.842Z,85.52
2023-03-29T06:58:00.280Z,85.47
2023-03-29T07:00:30.967Z,85.43
2023-03-29T07:03:20.137Z,84.62
2023-03-29T07:05:52.252Z,83.33
2023-03-29T07:08:22.578Z,82.55
2023-03-29T07:10:59.974Z,81.52
2023-03-29T07:13:30.487Z,80.97
2023-03-29T07:15:59.331Z,79.23
2023-03-29T07:18:47.357Z,78.18
2023-03-29T07:21:24.375Z,77.83
2023-03-29T07:23:52.564Z,77.45
2023-03-29T07:26:28.687Z,78.20
2023-03-29T07:28:58.938Z,77.80
2023-03-29T07:31:29.546Z,78.26
2023-03-29T07:34:11.240Z,77.37
2023-03-29T07:36:39.704Z,76.56
2023-03-29T07:39:13.121Z,76.54
2023-03-29T07:41:44.704Z,76.02
2023-03-29T07:44:14.857Z,75.85
2023-03-29T07:46:44.653Z,76.10
2023-03-29T07:49:12.867Z,75.08
2023-03-29T07:51:40.928Z,73.93
2023-03-29T07:54:12.910Z,73.64
2023-03-29T07:57:04.845Z,73.64
2023-03-29T07:59:41.434Z,73.92
2023-03-29T08:02:14.648Z,73.59
2023-03-29T08:04:46.225Z,72.59
2023-03-29T08:07:21.541Z,72.09
2023-03-29T08:10:00.502Z,70.93
2023-03-29T08:13:03.808Z,70.02
2023-03-29T08:15:42.197Z,69.15
2023-03-29T08:18:17.340Z,68.83
2023-03-29T08:20:51.024Z,68.61
2023-03-29T08:23:19.396Z,67.45
2023-03-29T08:26:15.952Z,67.31
2023-03-29T08:28:45.691Z,67.45
2023-03-29T08:31:13.930Z,67.87
2023-03-29T08:33:44.581Z,66.95
2023-03-29T08:36:31.410Z,66.73
2023-03-29T08:39:05.914Z,67.31
2023-03-29T08:44:33.967Z,65.69
2023-03-29T08:47:23.251Z,65.62
2023-03-29T08:49:53.505Z,65.52
2023-03-29T08:52:40.088Z,63.90
2023-03-29T08:55:40.240Z,61.78
2023-03-29T08:58:41.618Z,59.65
2023-03-29T09:01:11.497Z,59.10
2023-03-29T09:04:11.449Z,59.06
2023-03-29T09:06:52.991Z,59.45
2023-03-29T09:09:34.134Z,60.28
2023-03-29T09:12:50.381Z,60.32
2023-03-29T09:15:24.606Z,59.45
2023-03-29T09:18:24.527Z,58.12
2023-03-29T09:21:01.522Z,57.95
2023-03-29T09:23:36.144Z,57.40
2023-03-29T09:26:41.115Z,58.11
2023-03-29T09:29:50.279Z,57.53
2023-03-29T09:32:24.397Z,58.05
2023-03-29T09:35:18.863Z,57.68
2023-03-29T09:37:48.067Z,57.01
2023-03-29T09:40:19.694Z,57.25
2023-03-29T09:42:58.884Z,57.46
2023-03-29T09:45:27.991Z,57.36
2023-03-29T09:48:03.442Z,57.38
2023-03-29T09:50:43.413Z,58.02
2023-03-29T09:53:12.026Z,57.07
2023-03-29T09:55:47.169Z,55.52
2023-03-29T09:58:36.158Z,55.39
2023-03-29T10:01:08.750Z,56.44
2023-03-29T10:03:39.364Z,56.40
2023-03-29T10:06:18.756Z,55.00
2023-03-29T10:08:55.060Z,54.81
2023-03-29T10:11:30.497Z,54.15
2023-03-29T10:14:04.507Z,54.74
2023-03-29T10:16:39.118Z,55.39
2023-03-29T10:19:34.967Z,54.72
2023-03-29T10:22:16.881Z,53.70
2023-03-29T10:24:49.948Z,53.64
2023-03-29T10:27:20.902Z,53.31
2023-03-29T10:29:50.907Z,52.31
2023-03-29T10:32:23.084Z,53.12
2023-03-29T10:34:52.125Z,53.79
2023-03-29T10:37:21.310Z,54.39
2023-03-29T10:39:49.498Z,54.77
2023-03-29T10:42:19.634Z,55.14
2023-03-29T10:44:55.495Z,54.44
2023-03-29T10:47:23.785Z,54.90
2023-03-29T10:49:56.708Z,52.92
2023-03-29T10:52:25.308Z,51.95
2023-03-29T10:54:54.958Z,52.21
2023-03-29T10:57:49.823Z,51.16
2023-03-29T11:00:24.348Z,51.33
2023-03-29T11:03:08.842Z,51.76
2023-03-29T11:06:08.299Z,52.57
2023-03-29T11:08:58.599Z,52.17
2023-03-29T11:11:33.019Z,52.86
2023-03-29T11:14:28.010Z,52.67
2023-03-29T11:17:07.195Z,52.92
2023-03-29T11:19:56.686Z,52.39
2023-03-29T11:22:56.363Z,49.98
2023-03-29T11:25:31.189Z,48.51
2023-03-29T11:28:12.147Z,49.14
2023-03-29T11:31:16.281Z,49.95
2023-03-29T11:34:03.175Z,50.14
2023-03-29T11:36:35.723Z,50.93
2023-03-29T11:39:09.656Z,50.57
2023-03-29T11:41:39.864Z,49.23
2023-03-29T11:44:15.228Z,49.13
2023-03-29T11:46:46.882Z,48.07
2023-03-29T11:49:22.433Z,45.33
2023-03-29T11:52:11.799Z,43.77
2023-03-29T11:54:48.096Z,43.34
2023-03-29T11:57:24.698Z,42.65
2023-03-29T11:59:58.619Z,42.07
2023-03-29T12:02:48.217Z,42.17
2023-03-29T12:05:21.122Z,40.99
2023-03-29T12:08:02.364Z,40.96
2023-03-29T12:10:42.968Z,40.43
2023-03-29T12:13:32.556Z,39.74
2023-03-29T12:16:20.122Z,39.67
2023-03-29T12:18:49.884Z,38.98
2023-03-29T12:21:22.951Z,39.00
2023-03-29T12:23:52.945Z,38.13
2023-03-29T12:26:43.076Z,38.03
2023-03-29T12:29:49.018Z,37.71
2023-03-29T12:32:26.596Z,36.44
2023-03-29T12:35:34.378Z,35.98
2023-03-29T12:38:23.044Z,35.97
2023-03-29T12:41:19.547Z,37.07
2023-03-29T12:44:10.242Z,38.11
2023-03-29T12:46:52.127Z,38.60
2023-03-29T12:49:32.082Z,39.30
2023-03-29T12:52:00.625Z,39.73
2023-03-29T12:54:31.998Z,39.62
2023-03-29T12:57:01.291Z,40.20
2023-03-29T12:59:40.695Z,40.73
2023-03-29T13:02:15.339Z,41.74
2023-03-29T13:04:47.053Z,41.52
2023-03-29T13:07:27.644Z,41.05
2023-03-29T13:10:04.029Z,41.47
2023-03-29T13:12:35.381Z,41.40
2023-03-29T13:15:18.361Z,42.15
2023-03-29T13:18:03.569Z,42.92
2023-03-29T13:20:46.166Z,43.67
2023-03-29T13:23:33.462Z,44.16
2023-03-29T13:26:19.122Z,43.49
2023-03-29T13:29:05.742Z,43.91
2023-03-29T13:31:40.520Z,42.95
2023-03-29T13:34:43.047Z,42.52
2023-03-29T13:37:38.022Z,42.48
2023-03-29T13:40:32.127Z,42.35
2023-03-29T13:43:19.293Z,43.26
2023-03-29T13:45:59.357Z,42.35
2023-03-29T13:48:30.131Z,41.79
2023-03-29T13:51:05.221Z,41.60
2023-03-29T13:53:37.442Z,41.50
2023-03-29T13:56:06.589Z,41.65
2023-03-29T13:58:52.659Z,41.56
2023-03-29T14:02:00.754Z,41.40
2023-03-29T14:04:33.311Z,41.10
2023-03-29T14:07:01.324Z,40.66
2023-03-29T14:09:30.540Z,40.44
2023-03-29T14:12:01.670Z,41.28
2023-03-29T14:14:30.781Z,41.66
2023-03-29T14:17:01.616Z,40.83
2023-03-29T14:19:35.579Z,40.23
2023-03-29T14:22:09.268Z,40.10
2023-03-29T14:24:40.494Z,40.05
2023-03-29T14:27:11.469Z,39.25
2023-03-29T14:29:39.936Z,39.48
2023-03-29T14:32:10.651Z,39.81
2023-03-29T14:34:39.778Z,40.08
2023-03-29T14:37:10.733Z,39.82
2023-03-29T14:39:38.834Z,39.74
2023-03-29T14:42:12.896Z,40.41
2023-03-29T14:44:41.484Z,40.25
2023-03-29T14:47:09.456Z,39.57
2023-03-29T14:49:39.056Z,40.04
2023-03-29T14:52:07.307Z,40.55
2023-03-29T14:54:36.953Z,40.68
2023-03-29T14:57:09.034Z,39.74
2023-03-29T14:59:38.599Z,38.97
2023-03-29T15:02:23.107Z,38.99
2023-03-29T15:04:57.294Z,38.39
2023-03-29T15:07:27.134Z,37.79
2023-03-29T15:09:56.688Z,36.27
2023-03-29T15:12:24.607Z,35.12
2023-03-29T15:14:53.655Z,34.80
2023-03-29T15:17:28.076Z,34.52
2023-03-29T15:20:11.067Z,32.21
2023-03-29T15:23:13.210Z,29.88
2023-03-29T15:25:58.528Z,29.12
2023-03-29T15:28:34.048Z,29.13
2023-03-29T15:31:08.160Z,28.48
2023-03-29T15:33:38.650Z,28.02
2023-03-29T15:36:08.460Z,28.22
2023-03-29T15:41:10.938Z,27.47
2023-03-29T15:43:39.320Z,27.55
2023-03-29T15:46:07.747Z,27.17
2023-03-29T15:48:36.793Z,27.49
2023-03-29T15:51:07.014Z,27.40
2023-03-29T15:53:35.767Z,26.88
2023-03-29T15:56:05.644Z,26.74
2023-03-29T15:58:34.917Z,27.20
2023-03-29T16:01:11.542Z,27.77
2023-03-29T16:03:40.501Z,27.89
2023-03-29T16:06:12.020Z,27.90
2023-03-29T16:08:42.087Z,27.85
2023-03-29T16:11:10.406Z,27.77
2023-03-29T16:13:40.140Z,27.69
2023-03-29T16:16:11.083Z,28.05
2023-03-29T16:18:39.353Z,28.28
2023-03-29T16:21:13.966Z,29.02
2023-03-29T16:23:43.019Z,29.69
2023-03-29T16:26:16.470Z,30.40
2023-03-29T16:28:46.386Z,31.43
2023-03-29T16:31:14.653Z,32.34
2023-03-29T16:33:44.865Z,33.34
2023-03-29T16:36:13.235Z,33.91
2023-03-29T16:38:41.573Z,34.39
2023-03-29T16:41:15.848Z,34.73
2023-03-29T16:43:45.302Z,35.14
2023-03-29T16:46:14.087Z,35.66
2023-03-29T16:48:42.339Z,36.14
2023-03-29T16:51:11.033Z,36.61
2023-03-29T16:53:40.641Z,37.04
2023-03-29T16:56:09.317Z,37.59
2023-03-29T16:58:41.706Z,37.89
2023-03-29T17:01:14.166Z,38.25
2023-03-29T17:03:42.478Z,38.65
2023-03-29T17:06:11.500Z,38.99
2023-03-29T17:08:41.605Z,39.50
2023-03-29T17:11:09.881Z,39.78
2023-03-29T17:13:40.883Z,40.23
2023-03-29T17:16:09.406Z,40.94
2023-03-29T17:18:38.854Z,41.19
2023-03-29T17:21:07.422Z,41.52
2023-03-29T17:23:35.774Z,41.88
2023-03-29T17:26:05.238Z,42.42
2023-03-29T17:28:34.641Z,42.79
2023-03-29T17:31:08.053Z,42.95
2023-03-29T17:33:37.498Z,43.20
2023-03-29T17:36:07.196Z,43.34
2023-03-29T17:38:36.013Z,43.45
2023-03-29T17:41:04.781Z,43.75
2023-03-29T17:43:37.282Z,44.07
2023-03-29T17:46:06.561Z,44.18
2023-03-29T17:48:34.809Z,44.57
2023-03-29T17:51:03.000Z,44.64
2023-03-29T17:53:31.494Z,44.89
2023-03-29T17:55:59.503Z,45.13
2023-03-29T17:58:27.944Z,45.18
2023-03-29T18:00:56.492Z,45.28
2023-03-29T18:03:27.331Z,45.45
2023-03-29T18:05:57.113Z,45.65
2023-03-29T18:08:25.089Z,45.78
2023-03-29T18:10:53.493Z,45.92
2023-03-29T18:13:25.606Z,46.14
2023-03-29T18:15:56.838Z,46.65
2023-03-29T18:18:25.801Z,46.87
2023-03-29T18:20:54.038Z,47.12
2023-03-29T18:23:22.282Z,47.52
2023-03-29T18:25:51.122Z,48.24
2023-03-29T18:28:20.018Z,48.62
2023-03-29T18:30:51.846Z,49.03
2023-03-29T18:33:21.135Z,49.13
2023-03-29T18:35:51.756Z,49.40
2023-03-29T18:38:21.401Z,49.70
2023-03-29T18:40:50.192Z,49.85
2023-03-29T18:43:18.611Z,50.37
2023-03-29T18:45:47.617Z,50.51
2023-03-29T18:48:15.973Z,50.96
2023-03-29T18:50:47.329Z,51.16
2023-03-29T18:53:16.981Z,51.51
2023-03-29T18:55:46.258Z,51.90
2023-03-29T18:58:16.186Z,52.17
2023-03-29T19:00:45.521Z,52.46
2023-03-29T19:03:17.120Z,52.75
2023-03-29T19:05:45.427Z,52.96
2023-03-29T19:08:17.462Z,53.01
2023-03-29T19:10:47.240Z,53.24
2023-03-29T19:13:15.463Z,53.27
2023-03-29T19:15:47.611Z,53.36
2023-03-29T19:18:16.344Z,53.67
2023-03-29T19:20:44.365Z,53.90
2023-03-29T19:23:12.549Z,54.22
2023-03-29T19:25:40.772Z,54.01
2023-03-29T19:28:09.489Z,54.18
2023-03-29T19:30:37.448Z,54.24
2023-03-29T19:33:06.145Z,54.43
2023-03-29T19:35:35.199Z,54.63
2023-03-29T19:38:03.562Z,54.57
2023-03-29T19:40:32.004Z,54.62
2023-03-29T19:43:00.298Z,54.65
2023-03-29T19:45:30.100Z,54.91
2023-03-29T19:48:02.573Z,54.81
2023-03-29T19:50:32.926Z,54.92
2023-03-29T19:53:01.687Z,54.65
2023-03-29T19:55:29.963Z,54.71
2023-03-29T19:57:58.263Z,54.63
2023-03-29T20:00:26.163Z,54.76
2023-03-29T20:02:56.780Z,54.87
2023-03-29T20:05:25.513Z,54.75
2023-03-29T20:07:54.486Z,54.82
2023-03-29T20:10:22.889Z,54.77
2023-03-29T20:12:51.296Z,54.80
2023-03-29T20:15:19.371Z,55.05
2023-03-29T20:17:47.987Z,55.15
2023-03-29T20:20:16.229Z,55.28
2023-03-29T20:22:45.360Z,55.42
2023-03-29T20:25:14.049Z,55.33
2023-03-29T20:27:42.864Z,55.55
2023-03-29T20:30:11.676Z,55.57
2023-03-29T20:32:53.496Z,55.80
2023-03-29T20:35:22.029Z,55.95
2023-03-29T20:37:49.981Z,56.18
2023-03-29T20:40:18.256Z,56.06
2023-03-29T20:42:46.421Z,56.26
2023-03-29T20:45:18.714Z,56.37
2023-03-29T20:47:50.497Z,56.78
2023-03-29T20:50:20.181Z,56.98
2023-03-29T20:52:48.576Z,57.24
2023-03-29T20:55:22.253Z,57.34
2023-03-29T20:58:10.233Z,57.78
2023-03-29T21:01:21.934Z,58.17
2023-03-29T21:03:58.152Z,58.27
2023-03-29T21:06:26.818Z,58.56
2023-03-29T21:08:54.775Z,58.74
2023-03-29T21:11:26.816Z,58.75
2023-03-29T21:13:55.178Z,58.97
2023-03-29T21:16:25.304Z,58.88
2023-03-29T21:18:53.631Z,58.84
2023-03-29T21:21:22.834Z,58.81
2023-03-29T21:23:50.914Z,58.93
2023-03-29T21:26:19.666Z,59.07
2023-03-29T21:28:48.797Z,59.15
2023-03-29T21:31:17.404Z,59.38
2023-03-29T21:33:46.137Z,59.66
2023-03-29T21:36:14.658Z,59.44
2023-03-29T21:38:43.022Z,59.38
2023-03-29T21:41:12.238Z,59.47
2023-03-29T21:43:40.425Z,59.77
2023-03-29T21:46:08.559Z,60.00
2023-03-29T21:48:36.926Z,59.92
2023-03-29T21:51:06.517Z,60.16
2023-03-29T21:53:35.072Z,60.48
2023-03-29T21:56:03.346Z,60.49
2023-03-29T21:58:31.703Z,60.69
2023-03-29T22:00:59.961Z,60.82
2023-03-29T22:03:28.963Z,61.18
2023-03-29T22:06:00.054Z,61.35
2023-03-29T22:08:29.062Z,61.69
2023-03-29T22:10:57.625Z,61.81
2023-03-29T22:13:33.145Z,61.84
2023-03-29T22:16:03.812Z,61.78
2023-03-29T22:18:42.178Z,62.25
2023-03-29T22:21:14.555Z,62.20
2023-03-29T22:23:46.226Z,62.28
2023-03-29T22:26:15.055Z,62.68
2023-03-29T22:28:43.544Z,63.00
2023-03-29T22:31:14.295Z,62.99
2023-03-29T22:33:42.277Z,63.45
2023-03-29T22:36:16.880Z,63.55
2023-03-29T22:38:45.526Z,64.00
2023-03-29T22:41:14.062Z,64.06
2023-03-29T22:43:42.940Z,64.38
2023-03-29T22:46:13.267Z,64.52
2023-03-29T22:48:42.183Z,64.73
2023-03-29T22:51:10.663Z,64.61
2023-03-29T22:53:38.729Z,64.86
2023-03-29T22:56:07.904Z,64.92
2023-03-29T22:58:37.109Z,64.94
2023-03-29T23:01:06.090Z,64.81
2023-03-29T23:03:34.984Z,64.92
2023-03-29T23:06:04.556Z,65.02
2023-03-29T23:08:33.284Z,65.14
2023-03-29T23:11:03.997Z,64.94
2023-03-29T23:13:33.724Z,64.81
2023-03-29T23:16:03.738Z,64.81
2023-03-29T23:18:37.856Z,64.75
2023-03-29T23:21:08.890Z,64.57
2023-03-29T23:23:36.995Z,64.62
2023-03-29T23:26:08.563Z,64.70
2023-03-29T23:28:36.788Z,64.65
2023-03-29T23:31:14.019Z,64.65
2023-03-29T23:33:42.933Z,64.70
2023-03-29T23:36:15.930Z,64.52
2023-03-29T23:38:45.984Z,64.52
2023-03-29T23:41:14.375Z,64.56
2023-03-29T23:43:43.732Z,64.72
2023-03-29T23:46:15.306Z,64.34
2023-03-29T23:48:49.178Z,64.31
2023-03-29T23:51:18.901Z,64.13
2023-03-29T23:53:48.010Z,63.74
2023-03-29T23:56:21.671Z,63.57
2023-03-29T23:58:51.810Z,63.61
